Time;durP1;ratioP1;P1;durP2;ratioP2;P2;SDS_P1;SDS_P2;PMS_P1;PMS_P2;Temp;Humidity;BMP_temperature;BMP_pressure;BME280_temperature;BME280_humidity;BME280_pressure;Samples;Min_cycle;Max_cycle;Signal;HPM_P1;HPM_P2
2021/06/18 00:02:03;;;;;;;22.85;7.30;;;;;;;16.85;54.77;100646.03;5138877;27;20121;-79
2021/06/18 00:04:29;;;;;;;16.80;7.55;;;;;;;16.78;54.80;100640.19;5164843;27;20042;-79
2021/06/18 00:06:55;;;;;;;20.65;7.55;;;;;;;16.81;55.92;100648.63;5178268;27;20530;-89
2021/06/18 00:09:21;;;;;;;23.33;8.20;;;;;;;16.78;56.39;100651.22;5178241;27;20042;-94
2021/06/18 00:11:47;;;;;;;26.48;9.25;;;;;;;16.77;55.50;100655.94;5159310;27;20073;-79
2021/06/18 00:14:13;;;;;;;30.15;9.13;;;;;;;16.75;55.32;100669.25;5159863;27;20038;-93
2021/06/18 00:16:40;;;;;;;;;;;;;;;16.74;56.19;100659.31;5178644;27;20090;-94
2021/06/18 00:19:06;;;;;;;28.33;8.83;;;;;;;16.71;57.11;100657.19;5146350;27;20395;-79
2021/06/18 00:21:32;;;;;;;27.83;8.63;;;;;;;16.66;57.39;100662.88;5157187;27;20050;-79
2021/06/18 00:23:58;;;;;;;17.25;7.53;;;;;;;16.61;57.30;100669.34;5157036;27;20567;-79
2021/06/18 00:26:24;;;;;;;18.08;8.52;;;;;;;16.51;59.45;100661.38;5138514;27;20053;-91
2021/06/18 00:28:52;;;;;;;21.13;8.18;;;;;;;16.45;59.41;100676.44;5138846;27;20035;-79
2021/06/18 00:31:18;;;;;;;17.45;7.65;;;;;;;16.41;58.90;100676.28;5167013;27;20053;-86
2021/06/18 00:33:46;;;;;;;19.17;7.30;;;;;;;16.39;58.58;100678.56;5177371;27;20046;-79
2021/06/18 00:36:12;;;;;;;18.17;7.22;;;;;;;16.36;59.09;100678.38;5174173;27;20086;-79
2021/06/18 00:38:38;;;;;;;19.20;7.35;;;;;;;16.31;58.68;100681.25;5160494;27;20126;-80
2021/06/18 00:41:04;;;;;;;24.77;7.60;;;;;;;16.26;59.79;100687.75;5156891;27;20062;-95
2021/06/18 00:43:31;;;;;;;24.55;7.60;;;;;;;16.15;60.19;100694.66;5156558;27;20038;-81
2021/06/18 00:45:58;;;;;;;22.40;7.22;;;;;;;16.10;58.99;100687.34;5158101;27;20463;-86
2021/06/18 00:48:27;;;;;;;20.25;7.82;;;;;;;16.22;59.38;100700.53;5158157;27;20040;-79
2021/06/18 00:50:54;;;;;;;20.08;7.28;;;;;;;16.24;59.43;100700.22;5177137;27;20046;-79
2021/06/18 00:53:20;;;;;;;15.02;6.60;;;;;;;16.22;59.32;100695.00;5170974;27;20526;-79
2021/06/18 00:55:48;;;;;;;15.25;7.20;;;;;;;16.21;59.80;100690.63;5177417;27;20539;-78
2021/06/18 00:58:14;;;;;;;19.33;7.18;;;;;;;16.17;60.08;100689.66;5177473;27;20049;-94
2021/06/18 01:00:42;;;;;;;24.37;8.27;;;;;;;16.12;59.95;100692.53;5177128;27;20438;-80
2021/06/18 01:03:08;;;;;;;26.15;10.77;;;;;;;16.12;60.00;100698.84;5177364;27;20038;-81
2021/06/18 01:05:35;;;;;;;28.27;9.63;;;;;;;16.01;61.18;100693.94;5158958;27;20035;-80
2021/06/18 01:08:13;;;;;;;33.65;12.55;;;;;;;15.73;61.55;100681.13;5159080;27;20061;-80
2021/06/18 01:10:52;;;;;;;48.45;17.95;;;;;;;15.84;62.29;100702.91;5177035;27;20042;-80
2021/06/18 01:13:40;;;;;;;67.82;24.30;;;;;;;15.85;62.03;100710.06;5171573;27;20045;-92
2021/06/18 01:16:16;;;;;;;56.42;23.65;;;;;;;15.86;61.47;100695.13;5159045;27;20130;-80
2021/06/18 01:18:46;;;;;;;68.95;24.50;;;;;;;15.92;61.42;100704.91;5169286;27;20034;-80
2021/06/18 01:21:56;;;;;;;61.25;23.08;;;;;;;15.97;61.14;100702.84;5176889;27;20034;-80
2021/06/18 01:24:49;;;;;;;60.25;22.25;;;;;;;16.06;60.33;100700.13;5154745;27;20541;-90
2021/06/18 01:27:27;;;;;;;60.55;21.27;;;;;;;16.11;60.59;100701.94;5163424;27;20467;-80
2021/06/18 01:29:57;;;;;;;48.03;18.02;;;;;;;16.15;61.02;100705.69;5175990;27;20042;-80
2021/06/18 01:32:32;;;;;;;35.92;14.10;;;;;;;16.19;60.63;100704.75;5176854;27;20042;-80
2021/06/18 01:35:00;;;;;;;45.80;14.70;;;;;;;16.21;60.64;100707.19;5176473;27;20113;-80
2021/06/18 01:37:30;;;;;;;37.50;15.68;;;;;;;16.21;60.07;100699.72;5176541;27;20132;-80
2021/06/18 01:40:01;;;;;;;41.75;15.65;;;;;;;16.25;60.53;100710.94;5165924;27;20043;-94
2021/06/18 01:42:31;;;;;;;41.58;14.43;;;;;;;16.24;61.22;100705.75;5155305;27;20038;-80
2021/06/18 01:44:58;;;;;;;33.80;13.15;;;;;;;16.24;61.51;100712.06;5155485;27;20039;-81
2021/06/18 01:47:24;;;;;;;;;;;;;;;16.20;62.01;100709.13;5143785;27;20042;-80
2021/06/18 01:49:52;;;;;;;42.75;14.07;;;;;;;16.19;61.79;100721.31;5176369;27;19926;-80
2021/06/18 01:52:20;;;;;;;41.08;16.52;;;;;;;16.16;62.09;100715.63;5176367;27;20073;-83
2021/06/18 01:54:48;;;;;;;48.33;16.33;;;;;;;16.20;62.00;100725.69;5137094;27;20038;-95
2021/06/18 01:57:15;;;;;;;43.58;15.93;;;;;;;16.20;61.74;100717.41;5157766;27;20046;-80
2021/06/18 01:59:42;;;;;;;38.95;14.82;;;;;;;16.33;61.96;100734.22;5154205;27;20483;-80
2021/06/18 02:02:09;;;;;;;39.30;15.98;;;;;;;16.36;61.92;100734.38;5155133;27;20525;-79
2021/06/18 02:04:40;;;;;;;50.47;17.15;;;;;;;16.38;61.94;100718.31;5155243;27;20038;-79
2021/06/18 02:07:10;;;;;;;52.67;19.10;;;;;;;16.56;61.76;100741.28;5138910;27;20085;-84
2021/06/18 02:09:39;;;;;;;56.95;18.05;;;;;;;16.65;61.72;100741.31;5176080;27;20035;-80
2021/06/18 02:12:06;;;;;;;44.53;16.70;;;;;;;16.72;61.49;100746.38;5175510;27;20042;-79
2021/06/18 02:14:35;;;;;;;43.97;15.00;;;;;;;16.77;61.68;100743.50;5175565;27;20500;-79
2021/06/18 02:17:03;;;;;;;38.28;16.45;;;;;;;16.84;61.67;100741.09;5175797;27;20091;-94
2021/06/18 02:19:30;;;;;;;47.10;16.65;;;;;;;16.89;61.69;100747.28;5175326;27;20050;-80
2021/06/18 02:21:57;;;;;;;41.45;16.08;;;;;;;16.95;61.95;100741.59;5169191;27;20043;-94
2021/06/18 02:24:26;;;;;;;34.22;14.70;;;;;;;16.98;61.90;100741.78;5154502;27;20042;-79
2021/06/18 02:26:55;;;;;;;31.83;13.73;;;;;;;17.05;61.83;100735.78;5155021;27;20056;-80
2021/06/18 02:29:21;;;;;;;46.40;13.57;;;;;;;17.16;62.14;100752.91;5170123;27;20030;-80
2021/06/18 02:31:49;;;;;;;35.17;13.23;;;;;;;17.22;62.34;100762.63;5175105;27;20046;-82
2021/06/18 02:34:15;;;;;;;37.42;13.23;;;;;;;17.22;62.11;100757.09;5175559;27;20649;-95
2021/06/18 02:36:42;;;;;;;42.03;16.13;;;;;;;17.36;60.93;100771.63;5156407;27;20517;-79
2021/06/18 02:39:10;;;;;;;52.45;15.57;;;;;;;17.47;59.81;100761.06;5167673;27;20499;-79
2021/06/18 02:41:37;;;;;;;43.25;13.00;;;;;;;17.51;59.93;100762.84;5154300;27;20095;-80
2021/06/18 02:44:04;;;;;;;39.10;13.38;;;;;;;17.65;60.25;100772.94;5154318;27;20091;-80
2021/06/18 02:47:01;;;;;;;40.22;11.98;;;;;;;17.72;60.33;100779.63;5154290;27;20085;-80
2021/06/18 02:49:58;;;;;;;30.48;10.13;;;;;;;17.74;59.23;100770.97;5153375;27;20053;-80
2021/06/18 02:52:42;;;;;;;30.98;9.23;;;;;;;17.90;57.89;100780.44;5173146;27;20034;-95
2021/06/18 02:55:16;;;;;;;29.17;8.57;;;;;;;17.88;57.38;100771.69;5175337;27;20138;-79
2021/06/18 02:57:55;;;;;;;28.40;8.13;;;;;;;18.10;57.41;100781.72;5174764;27;20046;-88
2021/06/18 03:00:25;;;;;;;23.05;7.70;;;;;;;18.09;57.27;100769.03;5174751;27;20038;-79
2021/06/18 03:02:58;;;;;;;18.85;6.65;;;;;;;18.20;57.00;100778.63;5174916;27;20034;-80
2021/06/18 03:05:26;;;;;;;20.05;6.45;;;;;;;18.25;56.20;100772.13;5154511;27;20041;-79
2021/06/18 03:07:59;;;;;;;15.90;5.45;;;;;;;18.40;55.99;100785.41;5158769;27;20045;-79
2021/06/18 03:10:27;;;;;;;17.40;5.53;;;;;;;18.42;56.38;100777.59;5162487;27;20038;-79
2021/06/18 03:13:06;;;;;;;14.82;4.90;;;;;;;18.56;54.73;100794.00;5166856;27;20038;-79
2021/06/18 03:15:37;;;;;;;14.25;4.97;;;;;;;18.63;54.83;100786.00;5153929;27;20655;-80
2021/06/18 03:18:08;;;;;;;13.90;4.72;;;;;;;18.71;54.86;100787.94;5173974;27;20090;-79
2021/06/18 03:20:36;;;;;;;13.85;4.25;;;;;;;18.77;54.17;100788.56;5172160;27;20064;-79
2021/06/18 03:23:06;;;;;;;15.35;4.15;;;;;;;18.83;53.16;100783.69;5174232;27;20042;-80
2021/06/18 03:25:36;;;;;;;18.65;4.40;;;;;;;18.91;52.54;100780.06;5174794;27;20066;-79
2021/06/18 03:28:03;;;;;;;13.15;4.07;;;;;;;18.88;52.43;100761.34;5174525;27;20075;-80
2021/06/18 03:30:33;;;;;;;13.93;4.80;;;;;;;19.09;52.74;100769.69;5171906;27;20521;-94
2021/06/18 03:33:01;;;;;;;23.27;4.50;;;;;;;19.18;53.49;100770.47;5154510;27;20097;-80
2021/06/18 03:35:31;;;;;;;21.02;5.03;;;;;;;19.29;52.45;100765.31;5153402;27;20130;-95
2021/06/18 03:37:58;;;;;;;19.30;6.72;;;;;;;19.25;52.42;100756.88;5135411;27;20062;-80
2021/06/18 03:40:25;;;;;;;20.75;6.43;;;;;;;19.43;52.36;100769.47;5135119;27;20077;-95
2021/06/18 03:42:52;;;;;;;31.60;6.25;;;;;;;19.48;52.67;100762.91;5137073;27;20030;-95
2021/06/18 03:45:21;;;;;;;27.02;5.95;;;;;;;19.56;51.68;100766.75;5117846;27;20415;-80
2021/06/18 03:47:49;;;;;;;34.50;7.32;;;;;;;19.63;49.88;100773.41;5158224;27;20043;-95
2021/06/18 03:50:19;;;;;;;42.88;9.93;;;;;;;19.65;49.62;100764.78;5135086;27;20034;-79
2021/06/18 03:52:46;;;;;;;37.20;8.48;;;;;;;19.80;48.96;100778.03;5154139;27;20038;-95
2021/06/18 03:55:13;;;;;;;34.13;7.80;;;;;;;19.84;48.90;100775.41;5153716;27;20065;-79
2021/06/18 04:00:06;;;;;;;30.50;8.00;;;;;;;20.01;48.72;100769.69;5174301;27;20042;-79
2021/06/18 04:02:40;;;;;;;35.15;9.43;;;;;;;20.06;49.15;100774.19;5174279;27;20491;-79
2021/06/18 04:07:33;;;;;;;31.53;8.73;;;;;;;20.34;47.59;100779.97;5174616;27;20113;-79
2021/06/18 04:10:01;;;;;;;32.53;9.07;;;;;;;20.45;47.46;100789.47;5173837;27;20521;-80
2021/06/18 04:12:29;;;;;;;31.60;8.82;;;;;;;20.61;47.24;100789.66;5158433;27;20047;-92
2021/06/18 04:14:59;;;;;;;38.67;10.20;;;;;;;20.82;45.89;100793.16;5153111;27;20065;-79
2021/06/18 04:17:25;;;;;;;38.13;10.40;;;;;;;20.87;46.77;100795.72;5147498;27;20038;-80
2021/06/18 04:19:52;;;;;;;39.23;11.03;;;;;;;20.81;45.16;100783.19;5171493;27;20049;-94
2021/06/18 04:22:29;;;;;;;30.63;9.57;;;;;;;20.88;45.49;100794.56;5157585;27;20300;-79
2021/06/18 04:24:57;;;;;;;24.67;8.25;;;;;;;20.91;43.93;100797.81;5156458;27;20670;-79
2021/06/18 04:27:25;;;;;;;35.50;9.50;;;;;;;21.03;44.69;100809.75;5162938;27;20407;-79
2021/06/18 04:29:52;;;;;;;32.05;9.10;;;;;;;21.06;44.11;100799.91;5174150;27;20101;-84
2021/06/18 04:32:18;;;;;;;;;;;;;;;21.25;42.74;100814.00;5173011;27;20098;-94
2021/06/18 04:34:46;;;;;;;23.80;6.15;;;;;;;21.28;43.34;100810.53;5179113;27;19918;-93
2021/06/18 04:37:12;;;;;;;21.48;5.85;;;;;;;21.27;43.73;100811.69;5156730;27;20043;-79
2021/06/18 04:39:37;;;;;;;17.90;5.13;;;;;;;21.45;43.58;100805.91;5156572;27;20046;-79
2021/06/18 04:42:04;;;;;;;39.50;5.97;;;;;;;21.66;42.65;100800.22;5156111;27;20070;-79
2021/06/18 04:44:31;;;;;;;17.05;5.97;;;;;;;21.79;43.28;100816.53;5157448;27;20041;-79
2021/06/18 04:46:57;;;;;;;;;;;;;;;21.97;42.28;100808.69;5160123;27;20098;-82
2021/06/18 04:49:23;;;;;;;15.55;6.03;;;;;;;22.22;42.28;100811.41;5159780;27;20712;-94
2021/06/18 04:51:52;;;;;;;22.45;5.00;;;;;;;22.28;40.73;100813.59;5161021;27;20635;-96
2021/06/18 04:54:18;;;;;;;20.60;4.95;;;;;;;22.19;39.90;100820.47;5169193;27;20082;-79
2021/06/18 04:56:44;;;;;;;21.35;6.50;;;;;;;22.38;42.52;100822.56;5181236;27;20034;-79
2021/06/18 04:59:10;;;;;;;19.93;6.30;;;;;;;22.65;40.19;100818.94;5168007;27;20039;-79
2021/06/18 05:01:36;;;;;;;19.48;6.03;;;;;;;22.69;40.53;100814.25;5163833;27;20035;-89
2021/06/18 05:04:02;;;;;;;20.17;5.90;;;;;;;22.69;40.14;100822.63;5160492;27;20037;-87
2021/06/18 05:06:28;;;;;;;16.23;4.82;;;;;;;22.62;38.70;100816.06;5164986;27;20066;-79
2021/06/18 05:08:53;;;;;;;16.43;6.17;;;;;;;22.65;40.62;100823.69;5157463;27;20141;-94
2021/06/18 05:11:22;;;;;;;21.10;6.23;;;;;;;22.49;39.07;100793.03;5171458;27;20056;-79
2021/06/18 05:13:51;;;;;;;19.52;5.90;;;;;;;22.61;40.14;100815.22;5142787;27;20283;-82
2021/06/18 05:16:18;;;;;;;11.70;4.75;;;;;;;22.56;40.54;100798.78;5166096;27;20038;-79
2021/06/18 05:18:44;;;;;;;22.85;4.70;;;;;;;22.68;38.50;100806.25;5159443;27;20716;-79
2021/06/18 05:21:12;;;;;;;20.23;3.15;;;;;;;22.78;37.77;100810.47;5162486;27;20032;-80
2021/06/18 05:23:38;;;;;;;9.65;2.80;;;;;;;22.92;37.51;100819.22;5161410;27;20069;-90
2021/06/18 05:26:06;;;;;;;21.63;4.90;;;;;;;22.98;38.03;100813.06;5171106;27;20123;-80
2021/06/18 05:28:34;;;;;;;14.80;3.97;;;;;;;23.04;38.52;100821.13;5152229;27;20099;-88
2021/06/18 05:31:00;;;;;;;11.93;2.37;;;;;;;23.00;35.19;100809.88;5159699;27;20034;-93
2021/06/18 05:33:26;;;;;;;9.82;2.88;;;;;;;23.04;37.71;100812.75;5161740;27;20296;-96
2021/06/18 05:35:52;;;;;;;7.22;2.78;;;;;;;23.07;37.33;100809.25;5170989;27;20034;-91
2021/06/18 05:38:18;;;;;;;23.23;3.50;;;;;;;23.14;37.57;100807.44;5176213;27;20473;-79
2021/06/18 05:40:44;;;;;;;9.90;3.23;;;;;;;23.06;36.69;100800.06;5145431;27;20060;-92
2021/06/18 05:43:11;;;;;;;9.23;2.90;;;;;;;23.29;37.94;100813.38;5166342;27;20027;-78
2021/06/18 05:45:40;;;;;;;12.00;2.60;;;;;;;23.26;37.37;100808.50;5155732;27;20041;-88
2021/06/18 05:48:07;;;;;;;9.65;2.15;;;;;;;23.26;36.53;100797.34;5166147;27;20034;-94
2021/06/18 05:50:32;;;;;;;;;;;;;;;23.30;36.72;100807.41;5175019;27;20042;-95
2021/06/18 05:53:00;;;;;;;6.63;2.78;;;;;;;23.25;35.88;100790.16;5174043;27;19918;-93
2021/06/18 05:55:25;;;;;;;7.53;3.85;;;;;;;23.51;38.49;100812.69;5177736;27;20042;-80
2021/06/18 05:57:52;;;;;;;5.28;2.72;;;;;;;23.69;36.48;100804.75;5171130;27;20031;-89
2021/06/18 06:00:19;;;;;;;10.85;3.17;;;;;;;23.70;37.01;100811.13;5168656;27;20045;-79
2021/06/18 06:02:47;;;;;;;7.25;2.60;;;;;;;23.56;33.96;100804.03;5176622;27;20066;-90
2021/06/18 06:05:13;;;;;;;13.27;3.07;;;;;;;23.47;34.68;100808.19;5152396;27;20066;-95
2021/06/18 06:07:47;;;;;;;22.92;2.97;;;;;;;23.55;34.72;100809.97;5157051;27;20038;-80
2021/06/18 06:10:15;;;;;;;14.15;3.30;;;;;;;23.55;34.94;100813.59;5161345;27;20035;-79
2021/06/18 06:12:42;;;;;;;9.02;2.97;;;;;;;23.60;37.16;100804.09;5157076;27;20034;-79
2021/06/18 06:15:09;;;;;;;12.43;3.20;;;;;;;23.62;34.81;100794.19;5156746;27;20499;-80
2021/06/18 06:17:35;;;;;;;9.35;3.38;;;;;;;23.73;36.12;100808.41;5153562;27;20026;-80
2021/06/18 06:20:03;;;;;;;7.95;2.75;;;;;;;23.71;35.30;100804.34;5153429;27;20039;-79
2021/06/18 06:22:29;;;;;;;11.25;2.92;;;;;;;23.75;34.74;100808.06;5171002;27;20068;-80
2021/06/18 06:24:55;;;;;;;7.28;3.03;;;;;;;23.83;34.97;100804.22;5175394;27;20069;-80
2021/06/18 06:27:21;;;;;;;7.80;2.63;;;;;;;23.86;34.63;100809.09;5167766;27;20034;-95
2021/06/18 06:29:47;;;;;;;6.88;2.92;;;;;;;23.83;34.19;100799.44;5170276;27;20070;-94
2021/06/18 06:32:13;;;;;;;9.70;2.90;;;;;;;23.83;34.53;100798.66;5158977;27;20078;-94
2021/06/18 06:34:39;;;;;;;17.90;5.45;;;;;;;23.88;34.45;100806.75;5141745;27;20038;-80
2021/06/18 06:37:05;;;;;;;12.83;2.90;;;;;;;23.89;33.64;100808.34;5154894;27;20425;-94
2021/06/18 06:39:33;;;;;;;12.60;2.65;;;;;;;23.81;32.65;100804.63;5159000;27;20057;-93
2021/06/18 06:42:01;;;;;;;11.02;3.28;;;;;;;23.88;34.67;100807.53;5157395;27;20082;-84
2021/06/18 06:44:28;;;;;;;10.65;3.70;;;;;;;23.99;35.12;100809.75;5176005;27;20042;-81
2021/06/18 06:46:54;;;;;;;11.40;4.00;;;;;;;24.28;36.54;100814.72;5157696;27;20402;-80
2021/06/18 06:49:21;;;;;;;14.48;2.83;;;;;;;24.32;34.83;100812.00;5154859;27;20156;-83
2021/06/18 06:51:46;;;;;;;5.10;1.93;;;;;;;24.33;33.99;100808.81;5162823;27;20672;-88
2021/06/18 06:54:15;;;;;;;7.72;2.67;;;;;;;24.15;32.89;100794.53;5147294;27;20049;-92
2021/06/18 06:56:41;;;;;;;13.57;3.00;;;;;;;24.20;33.76;100800.97;5163005;27;20035;-90
2021/06/18 06:59:09;;;;;;;9.75;2.40;;;;;;;24.16;33.91;100798.13;5141283;27;20639;-85
2021/06/18 07:01:34;;;;;;;18.47;3.20;;;;;;;24.19;35.29;100802.97;5152972;27;20034;-89
2021/06/18 07:04:02;;;;;;;9.27;2.28;;;;;;;24.17;34.69;100784.94;5156640;27;20284;-90
2021/06/18 07:06:32;;;;;;;6.05;1.70;;;;;;;24.31;34.91;100814.00;5164859;27;20039;-85
2021/06/18 07:08:58;;;;;;;7.18;2.00;;;;;;;24.31;34.76;100816.00;5130606;27;20487;-85
2021/06/18 07:11:24;;;;;;;12.55;2.20;;;;;;;24.33;34.09;100808.03;5166239;27;20092;-86
2021/06/18 07:13:50;;;;;;;4.43;1.73;;;;;;;24.24;34.61;100793.47;5137309;27;20035;-86
2021/06/18 07:16:16;;;;;;;9.75;2.20;;;;;;;24.36;33.88;100815.66;5161528;27;20098;-87
2021/06/18 07:18:42;;;;;;;14.63;2.60;;;;;;;24.32;33.39;100815.59;5168744;27;20117;-86
2021/06/18 07:21:08;;;;;;;8.60;2.28;;;;;;;24.24;33.11;100811.06;5139693;27;20612;-89
2021/06/18 07:23:36;;;;;;;10.65;2.00;;;;;;;24.13;32.76;100794.06;5148629;27;20046;-85
2021/06/18 07:26:02;;;;;;;7.07;1.92;;;;;;;24.18;35.23;100795.78;5138304;27;20041;-87
2021/06/18 07:28:29;;;;;;;5.70;2.10;;;;;;;24.27;34.88;100799.16;5135038;27;20039;-88
2021/06/18 07:30:55;;;;;;;;;;;;;;;24.39;33.64;100810.16;5160799;27;20046;-92
2021/06/18 07:33:21;;;;;;;5.28;1.65;;;;;;;24.34;33.30;100810.47;5157089;27;20021;-91
2021/06/18 07:35:49;;;;;;;5.45;2.20;;;;;;;24.22;32.16;100787.47;5144977;27;20027;-90
2021/06/18 07:38:17;;;;;;;4.20;1.70;;;;;;;24.28;32.14;100791.56;5115965;27;20044;-86
2021/06/18 07:40:43;;;;;;;14.73;2.95;;;;;;;24.40;34.15;100799.78;5120182;28;20787;-83
2021/06/18 07:43:09;;;;;;;9.40;2.13;;;;;;;24.40;33.63;100794.19;5116259;28;20031;-90
2021/06/18 07:45:35;;;;;;;4.53;1.80;;;;;;;24.52;33.96;100804.41;5112475;28;20511;-85
2021/06/18 07:48:09;;;;;;;8.30;1.80;;;;;;;24.43;32.52;100779.50;5093941;28;20501;-85
2021/06/18 07:50:38;;;;;;;21.60;2.95;;;;;;;24.55;35.03;100795.28;5127452;28;20035;-85
2021/06/18 07:53:05;;;;;;;9.75;1.77;;;;;;;24.62;34.86;100784.22;5120362;28;20135;-85
2021/06/18 09:11:59;;;;;;;;;;;;;;;25.66;32.98;100760.63;5790515;23;20398;-92
2021/06/18 09:14:29;;;;;;;;;;;;;;;25.63;32.37;100767.81;4961105;28;19909;-86
2021/06/18 09:17:06;;;;;;;;;;;;;;;25.69;33.55;100768.28;4941796;29;19922;-87
2021/06/18 09:19:33;;;;;;;;;;;;;;;25.76;32.38;100762.75;4924037;29;19922;-85
2021/06/18 09:22:00;;;;;;;;;;;;;;;25.81;32.49;100759.66;4956363;29;19922;-84
2021/06/18 09:24:30;;;;;;;;;;;;;;;25.75;32.22;100756.34;4956171;29;19926;-86
2021/06/18 09:26:56;;;;;;;;;;;;;;;25.71;33.00;100760.31;4939329;29;20356;-88
2021/06/18 09:29:22;;;;;;;;;;;;;;;25.77;33.10;100753.19;4938854;29;19981;-82
2021/06/18 09:31:56;;;;;;;;;;;;;;;25.96;33.61;100757.84;4957631;29;20036;-80
2021/06/18 09:34:30;;;;;;;;;;;;;;;26.07;33.63;100752.38;4958382;29;19922;-91
2021/06/18 09:37:13;;;;;;;;;;;;;;;26.07;31.82;100750.38;4959581;29;19918;-80
2021/06/18 09:39:57;;;;;;;;;;;;;;;26.16;32.62;100747.28;4960066;29;19922;-92
2021/06/18 09:42:26;;;;;;;;;;;;;;;26.30;34.28;100747.41;4957164;29;19918;-94
2021/06/18 09:45:08;;;;;;;;;;;;;;;26.50;34.44;100744.41;4958734;29;19985;-85
2021/06/18 09:47:35;;;;;;;;;;;;;;;26.57;31.00;100744.47;4920168;29;19918;-78
2021/06/18 09:50:03;;;;;;;;;;;;;;;26.54;31.82;100734.03;4951268;29;19973;-78
2021/06/18 09:52:29;;;;;;;;;;;;;;;26.43;31.07;100737.50;4955940;29;19929;-80
2021/06/18 09:54:55;;;;;;;;;;;;;;;26.50;32.58;100736.00;4955768;29;19922;-80
2021/06/18 09:57:23;;;;;;;;;;;;;;;26.64;35.44;100745.34;4955877;29;20344;-79
2021/06/18 09:59:52;;;;;;;;;;;;;;;26.46;30.31;100728.34;4956200;29;20392;-82
2021/06/18 10:02:20;;;;;;;;;;;;;;;26.47;32.71;100734.75;4955534;29;19926;-80
2021/06/18 10:04:48;;;;;;;;;;;;;;;26.59;34.35;100730.84;4956006;29;19945;-84
2021/06/18 10:07:16;;;;;;;;;;;;;;;26.66;32.01;100734.53;4951243;29;20025;-91
2021/06/18 10:09:44;;;;;;;;;;;;;;;26.78;35.66;100736.22;4953141;29;19926;-92
2021/06/18 10:12:10;;;;;;;;;;;;;;;26.83;32.60;100727.47;4938125;29;20299;-82
2021/06/18 10:14:36;;;;;;;;;;;;;;;27.07;36.71;100728.81;4939144;29;19984;-80
2021/06/18 10:17:01;;;;;;;;;;;;;;;27.02;29.59;100726.41;4955169;29;20005;-81
2021/06/18 10:19:32;;;;;;;;;;;;;;;26.94;33.27;100719.91;4954664;29;20303;-91
2021/06/18 10:22:05;;;;;;;;;;;;;;;27.09;35.91;100720.03;4954572;28;19973;-81
2021/06/18 10:24:33;;;;;;;;;;;;;;;27.13;31.37;100716.06;4954088;29;19928;-80
2021/06/18 10:27:00;;;;;;;;;;;;;;;27.21;33.37;100721.72;4952593;29;19925;-92
2021/06/18 10:29:38;;;;;;;;;;;;;;;27.25;32.82;100712.13;4951636;29;20017;-86
2021/06/18 10:32:23;;;;;;;;;;;;;;;27.21;29.86;100710.47;4951646;29;19926;-80
2021/06/18 10:34:49;;;;;;;;;;;;;;;27.10;30.65;100699.16;4955032;29;20421;-80
2021/06/18 10:37:19;;;;;;;;;;;;;;;27.22;30.75;100703.66;4955103;29;19973;-80
2021/06/18 10:42:14;;;;;;;;;;;;;;;27.46;36.43;100696.59;4954753;29;19922;-80
2021/06/18 10:44:39;;;;;;;;;;;;;;;27.55;34.41;100692.22;4952943;29;19933;-80
2021/06/18 10:47:06;;;;;;;;;;;;;;;27.65;30.83;100701.88;4952114;29;19926;-77
2021/06/18 10:49:39;;;;;;;;;;;;;;;27.79;33.54;100703.97;4953114;29;19926;-79
2021/06/18 10:52:15;;;;;;;;;;;;;;;27.79;34.36;100703.97;4951311;29;20388;-90
2021/06/18 10:54:46;;;;;;;;;;;;;;;27.84;30.76;100704.34;4951938;29;19929;-91
2021/06/18 10:57:20;;;;;;;;;;;;;;;27.79;28.47;100701.16;4947520;29;19930;-88
2021/06/18 10:59:48;;;;;;;;;;;;;;;27.70;28.23;100693.03;4933824;29;19922;-78
2021/06/18 11:02:26;;;;;;;;;;;;;;;27.59;27.39;100684.59;4948729;29;20013;-81
2021/06/18 11:04:55;;;;;;;;;;;;;;;27.31;29.58;100693.69;4950544;29;19926;-79
2021/06/18 11:07:25;;;;;;;;;;;;;;;27.37;29.68;100692.13;4938383;29;20302;-80
2021/06/18 11:09:52;;;;;;;;;;;;;;;27.57;33.60;100686.97;4954163;29;19922;-81
2021/06/18 11:12:24;;;;;;;;;;;;;;;27.70;33.42;100687.44;4951765;28;19922;-86
2021/06/18 11:14:52;;;;;;;;;;;;;;;27.85;30.35;100677.06;4951348;29;20036;-86
2021/06/18 11:17:37;;;;;;;;;;;;;;;27.79;29.25;100676.66;4950616;29;19944;-92
2021/06/18 11:20:08;;;;;;;;;;;;;;;27.74;28.80;100679.81;4914761;29;20350;-88
2021/06/18 11:22:40;;;;;;;;;;;;;;;27.63;28.24;100671.34;4940915;29;19923;-93
2021/06/18 11:25:26;;;;;;;;;;;;;;;27.73;30.18;100672.59;4920079;29;19923;-90
2021/06/18 11:27:51;;;;;;;;;;;;;;;27.89;30.07;100668.66;4920054;29;20307;-90
2021/06/18 11:30:25;;;;;;;;;;;;;;;27.95;29.77;100669.88;4937256;28;19923;-93
2021/06/18 11:32:52;;;;;;;;;;;;;;;28.05;29.61;100663.47;4938695;28;19922;-90
2021/06/18 11:35:33;;;;;;;;;;;;;;;28.11;28.64;100661.84;4935493;29;20909;-84
2021/06/18 11:38:17;;;;;;;;;;;;;;;28.21;28.57;100660.25;4949045;29;21331;-86
2021/06/18 11:40:44;;;;;;;;;;;;;;;28.31;30.87;100662.25;4931482;29;19922;-87
2021/06/18 11:43:14;;;;;;;;;;;;;;;28.42;28.49;100656.69;4949028;28;19929;-87
2021/06/18 11:45:43;;;;;;;;;;;;;;;28.54;28.28;100653.44;4950375;29;19922;-87
2021/06/18 11:48:15;;;;;;;;;;;;;;;28.57;27.76;100647.00;4932779;29;20359;-86
2021/06/18 11:50:43;;;;;;;;;;;;;;;28.44;27.66;100652.22;4932983;29;19968;-92
2021/06/18 11:53:09;;;;;;;;;;;;;;;28.49;27.99;100649.03;4931802;29;19962;-80
2021/06/18 11:55:35;;;;;;;;;;;;;;;28.69;30.90;100652.22;4949043;29;19974;-80
2021/06/18 11:58:01;;;;;;;;;;;;;;;28.78;26.85;100638.53;4948519;29;19922;-79
2021/06/18 12:00:30;;;;;;;;;;;;;;;28.90;28.66;100650.56;4949049;29;20387;-82
2021/06/18 12:02:58;;;;;;;;;;;;;;;28.91;28.08;100649.38;4930744;29;20024;-89
2021/06/18 12:05:29;;;;;;;;;;;;;;;28.93;25.00;100639.28;4947943;29;19961;-77
2021/06/18 12:07:55;;;;;;;;;;;;;;;28.83;26.50;100645.75;4947400;29;19926;-77
2021/06/18 12:10:23;;;;;;;;;;;;;;;28.85;26.97;100636.94;4948129;29;19922;-86
2021/06/18 12:12:50;;;;;;;;;;;;;;;28.97;27.45;100639.28;4913889;29;20351;-80
2021/06/18 12:15:16;;;;;;;;;;;;;;;28.88;26.14;100642.53;4947092;29;19923;-80
2021/06/18 12:17:49;;;;;;;;;;;;;;;28.84;26.08;100641.75;4946497;29;19922;-79
2021/06/18 12:20:22;;;;;;;;;;;;;;;28.92;26.58;100639.72;4946556;29;19981;-79
2021/06/18 12:22:49;;;;;;;;;;;;;;;28.61;27.37;100633.75;4946595;29;20402;-88
2021/06/18 12:25:14;;;;;;;;;;;;;;;28.83;28.94;100642.16;4946103;29;19922;-81
2021/06/18 12:27:41;;;;;;;;;;;;;;;29.07;28.76;100637.69;4946140;28;20403;-85
2021/06/18 12:30:08;;;;;;;;;;;;;;;29.24;30.65;100640.44;4945804;29;19927;-78
2021/06/18 12:32:34;;;;;;;;;;;;;;;29.33;28.80;100630.75;4945312;29;20016;-78
2021/06/18 12:35:01;;;;;;;;;;;;;;;29.39;30.59;100634.75;4945256;28;19930;-78
2021/06/18 12:37:29;;;;;;;;;;;;;;;29.46;29.57;100631.88;4963694;28;19922;-79
2021/06/18 12:40:05;;;;;;;;;;;;;;;29.60;28.82;100637.47;4948266;28;19985;-81
2021/06/18 12:42:47;;;;;;;;;;;;;;;29.70;27.61;100633.81;4944926;29;19922;-80
2021/06/18 12:45:18;;;;;;;;;;;;;;;29.57;27.69;100632.66;4946344;28;19970;-80
2021/06/18 12:47:45;;;;;;;;;;;;;;;29.59;26.46;100626.59;4953563;28;19973;-92
2021/06/18 12:50:32;;;;;;;;;;;;;;;29.53;27.47;100614.94;4902198;29;19973;-91
2021/06/18 12:53:03;;;;;;;;;;;;;;;29.57;27.50;100617.72;4899938;29;19923;-92
2021/06/18 12:55:32;;;;;;;;;;;;;;;29.60;26.86;100620.56;4880265;29;19931;-90
2021/06/18 12:58:26;;;;;;;;;;;;;;;29.73;27.39;100606.78;4911006;29;20059;-90
2021/06/18 13:00:56;;;;;;;;;;;;;;;29.73;26.82;100604.78;4910911;29;19966;-90
2021/06/18 13:03:32;;;;;;;;;;;;;;;29.72;28.21;100616.47;4879752;29;20556;-91
2021/06/18 13:05:59;;;;;;;;;;;;;;;29.78;28.78;100612.00;4892072;29;19959;-92
2021/06/18 13:08:28;;;;;;;;;;;;;;;29.83;28.16;100617.19;4884732;29;19930;-92
2021/06/18 13:10:54;;;;;;;;;;;;;;;29.91;28.12;100618.75;4894809;29;20025;-91
2021/06/18 13:13:46;;;;;;;;;;;;;;;29.84;27.09;100618.00;4894256;29;19933;-91
2021/06/18 13:16:13;;;;;;;;;;;;;;;29.69;26.18;100606.81;4894047;29;19923;-91
2021/06/18 13:18:49;;;;;;;;;;;;;;;29.77;27.02;100601.13;4862111;29;19941;-89